Time;durP1;ratioP1;P1;durP2;ratioP2;P2;SDS_P1;SDS_P2;PMS_P1;PMS_P2;Temp;Humidity;BMP_temperature;BMP_pressure;BME280_temperature;BME280_humidity;BME280_pressure;Samples;Min_cycle;Max_cycle;Signal;HPM_P1;HPM_P2
2024/01/15 06:58:22;;;;;;;15.90;8.60;;;;;;;-0.68;67.69;95138.27;102394;1292;635973;-77
2024/01/15 07:00:50;;;;;;;20.30;10.80;;;;;;;-0.68;67.56;95142.39;104292;1267;96828;-79
2024/01/15 07:03:17;;;;;;;17.00;9.60;;;;;;;-0.71;67.46;95138.48;104644;1260;95829;-80
2024/01/15 07:05:45;;;;;;;25.50;12.00;;;;;;;-0.72;67.56;95142.73;104738;1263;98348;-77
2024/01/15 07:08:13;;;;;;;20.50;10.50;;;;;;;-0.75;67.61;95143.39;104557;1274;102073;-80
2024/01/15 07:10:40;;;;;;;20.90;11.50;;;;;;;-0.75;67.68;95143.95;104513;1263;98702;-79
2024/01/15 07:13:08;;;;;;;22.00;10.70;;;;;;;-0.76;67.75;95144.94;104538;1263;132415;-79
2024/01/15 07:15:36;;;;;;;19.30;10.10;;;;;;;-0.76;67.71;95141.27;104681;1263;95842;-76
2024/01/15 07:18:04;;;;;;;17.00;9.60;;;;;;;-0.76;67.74;95142.67;104714;1262;98259;-77
2024/01/15 07:20:31;;;;;;;18.30;9.50;;;;;;;-0.74;67.78;95145.43;104894;1271;102131;-79
2024/01/15 07:22:59;;;;;;;15.60;8.50;;;;;;;-0.73;67.66;95146.70;104825;1271;100094;-79
2024/01/15 07:25:27;;;;;;;21.90;10.70;;;;;;;-0.72;67.77;95141.10;104919;1263;95917;-79
2024/01/15 07:27:55;;;;;;;17.60;9.80;;;;;;;-0.68;67.85;95142.52;104889;1262;96713;-76
2024/01/15 07:30:52;;;;;;;17.40;9.10;;;;;;;-0.64;67.79;95143.80;104829;1263;101301;-80
2024/01/15 07:33:19;;;;;;;15.20;8.90;;;;;;;-0.59;67.97;95147.04;104803;1262;100375;-77
2024/01/15 07:35:47;;;;;;;20.50;10.20;;;;;;;-0.54;67.91;95148.86;104610;1261;100669;-78
2024/01/15 07:38:15;;;;;;;16.60;9.70;;;;;;;-0.53;67.56;95155.22;104715;1263;95886;-76
2024/01/15 07:40:43;;;;;;;18.50;9.40;;;;;;;-0.52;67.71;95156.05;104662;1266;96164;-81
2024/01/15 07:43:10;;;;;;;19.40;10.60;;;;;;;-0.52;67.54;95158.69;104679;1263;101286;-76
2024/01/15 07:45:38;;;;;;;18.20;10.30;;;;;;;-0.51;67.75;95159.95;104677;1263;100296;-79
2024/01/15 07:48:06;;;;;;;19.10;10.00;;;;;;;-0.48;67.79;95163.63;104606;1261;100712;-79
2024/01/15 07:50:34;;;;;;;20.70;11.10;;;;;;;-0.47;67.65;95164.13;104652;1262;96687;-78
2024/01/15 07:53:02;;;;;;;17.80;9.90;;;;;;;-0.46;67.48;95167.23;104702;1271;96722;-76
2024/01/15 07:55:30;;;;;;;15.70;9.90;;;;;;;-0.45;67.53;95171.84;104646;1263;101556;-79
2024/01/15 07:57:59;;;;;;;15.80;9.50;;;;;;;-0.44;67.41;95170.50;104986;1266;102582;-79
2024/01/15 08:00:27;;;;;;;14.50;9.20;;;;;;;-0.44;67.52;95172.98;104938;1260;100492;-79
2024/01/15 08:02:54;;;;;;;15.70;9.60;;;;;;;-0.42;67.60;95180.79;104946;1260;96109;-80
2024/01/15 08:05:22;;;;;;;19.10;10.40;;;;;;;-0.39;67.36;95185.25;104929;1256;96477;-77
2024/01/15 08:07:50;;;;;;;17.10;9.80;;;;;;;-0.37;67.34;95179.46;104949;1259;99869;-78
2024/01/15 08:10:18;;;;;;;17.70;9.50;;;;;;;-0.34;67.32;95180.20;105011;1254;100133;-77
2024/01/15 08:12:45;;;;;;;17.40;9.90;;;;;;;-0.31;67.18;95178.34;104984;1260;100062;-78
2024/01/15 08:15:13;;;;;;;17.10;9.90;;;;;;;-0.28;67.13;95181.70;104854;1260;96492;-76
2024/01/15 08:17:41;;;;;;;15.50;9.40;;;;;;;-0.25;67.23;95180.30;104963;1259;96778;-77
2024/01/15 08:20:10;;;;;;;17.20;10.30;;;;;;;-0.22;67.22;95180.85;104968;1258;101482;-77
2024/01/15 08:22:39;;;;;;;16.50;9.40;;;;;;;-0.20;67.14;95182.90;104952;1259;100321;-76
2024/01/15 08:25:07;;;;;;;16.80;10.40;;;;;;;-0.18;67.22;95174.23;104968;1260;100655;-80
2024/01/15 08:27:35;;;;;;;17.30;10.30;;;;;;;-0.16;67.18;95175.30;104937;1259;96466;-76
2024/01/15 08:30:04;;;;;;;20.80;11.10;;;;;;;-0.13;67.19;95174.98;104924;1260;96681;-76
2024/01/15 08:32:32;;;;;;;17.60;10.00;;;;;;;-0.11;67.28;95169.42;105002;1260;99912;-78
2024/01/15 08:35:00;;;;;;;19.40;11.00;;;;;;;-0.08;67.31;95167.80;104974;1254;102022;-76
2024/01/15 08:37:28;;;;;;;16.50;9.50;;;;;;;-0.06;67.14;95172.10;105044;1259;100383;-77
2024/01/15 08:39:56;;;;;;;17.20;10.60;;;;;;;-0.05;67.10;95170.02;104929;1260;96760;-77
2024/01/15 08:42:24;;;;;;;17.40;10.10;;;;;;;-0.03;67.18;95166.58;104978;1259;96648;-80
2024/01/15 08:44:52;;;;;;;16.30;9.70;;;;;;;-0.02;67.13;95162.58;105234;1259;99358;-80
2024/01/15 08:47:19;;;;;;;17.30;10.20;;;;;;;-0.03;67.05;95162.01;104956;1254;100121;-80
2024/01/15 08:49:47;;;;;;;16.60;10.10;;;;;;;-0.01;67.35;95166.45;104928;1268;100752;-80
2024/01/15 08:52:15;;;;;;;16.90;9.60;;;;;;;0.03;67.28;95160.98;104995;1259;95917;-76
2024/01/15 08:54:43;;;;;;;15.80;10.20;;;;;;;0.05;67.37;95159.27;104949;1259;95818;-79
2024/01/15 08:57:11;;;;;;;18.40;10.60;;;;;;;0.09;67.41;95155.30;104944;1259;99771;-77
2024/01/15 08:59:39;;;;;;;14.90;9.00;;;;;;;0.12;67.20;95157.21;105040;1259;99993;-76
2024/01/15 09:02:07;;;;;;;18.40;9.60;;;;;;;0.11;66.85;95159.73;104985;1260;100713;-77
2024/01/15 09:04:35;;;;;;;16.50;10.00;;;;;;;0.11;66.74;95164.68;105063;1269;95906;-78
2024/01/15 09:07:03;;;;;;;19.20;10.50;;;;;;;0.12;66.71;95177.28;105200;1268;96491;-76
2024/01/15 09:09:30;;;;;;;21.50;11.10;;;;;;;0.15;66.77;95180.67;104993;1264;101294;-81
2024/01/15 09:11:58;;;;;;;17.40;10.80;;;;;;;0.19;66.78;95187.18;104929;1264;108881;-79
2024/01/15 09:14:26;;;;;;;18.50;11.40;;;;;;;0.23;66.68;95191.27;104994;1267;100438;-77
2024/01/15 09:16:54;;;;;;;19.10;10.50;;;;;;;0.26;66.47;95188.66;104953;1267;95800;-79
2024/01/15 09:19:22;;;;;;;20.10;11.20;;;;;;;0.29;66.41;95189.20;104939;1259;96760;-77
2024/01/15 09:21:50;;;;;;;17.50;10.70;;;;;;;0.34;66.32;95185.82;104922;1260;101626;-77
2024/01/15 09:24:17;;;;;;;16.90;10.00;;;;;;;0.39;66.37;95188.27;105020;1269;102163;-78
2024/01/15 09:26:45;;;;;;;21.40;12.50;;;;;;;0.44;65.96;95198.29;104936;1264;100605;-78
2024/01/15 09:29:15;;;;;;;21.30;11.20;;;;;;;0.47;65.80;95199.98;105243;1259;95796;-78
